Time;durP1;ratioP1;P1;durP2;ratioP2;P2;SDS_P1;SDS_P2;PMS_P1;PMS_P2;Temp;Humidity;BMP_temperature;BMP_pressure;BME280_temperature;BME280_humidity;BME280_pressure;Samples;Min_cycle;Max_cycle;Signal;HPM_P1;HPM_P2
2023/09/09 01:01:59;;;;;;;12.23;11.03;;;;;;;;;;3342506;23;21132;-90
2023/09/09 01:04:28;;;;;;;10.70;9.60;;;;;;;;;;4927753;28;20734;-89
2023/09/09 01:06:59;;;;;;;11.53;9.90;;;;;;;;;;4959664;29;21300;-90
2023/09/09 01:09:27;;;;;;;12.07;10.87;;;;;;;;;;4912921;29;20692;-86
2023/09/09 01:11:56;;;;;;;12.07;10.87;;;;;;;;;;4923556;29;20711;-86
2023/09/09 01:14:26;;;;;;;10.70;9.67;;;;;;;;;;4909620;29;20612;-87
2023/09/09 01:16:59;;;;;;;11.50;10.07;;;;;;;;;;4924594;29;20631;-90
2023/09/09 01:19:31;;;;;;;14.73;10.87;;;;;;;;;;4913500;29;20655;-86
2023/09/09 01:22:06;;;;;;;10.90;9.97;;;;;;;;;;4961169;28;20615;-85
2023/09/09 01:24:38;;;;;;;10.17;9.20;;;;;;;;;;4912547;29;20691;-86
2023/09/09 01:27:09;;;;;;;11.40;10.40;;;;;;;;;;4928024;29;20660;-86
2023/09/09 01:29:38;;;;;;;11.07;10.00;;;;;;;;;;4928182;29;20607;-86
2023/09/09 01:32:08;;;;;;;10.67;9.77;;;;;;;;;;4928702;29;20708;-87
2023/09/09 01:34:36;;;;;;;10.83;9.80;;;;;;;;;;4927437;29;20603;-86
2023/09/09 01:37:05;;;;;;;11.13;9.90;;;;;;;;;;4927214;29;20734;-86
2023/09/09 01:39:34;;;;;;;11.37;10.23;;;;;;;;;;4942937;29;20596;-86
2023/09/09 01:42:06;;;;;;;10.23;9.20;;;;;;;;;;4927535;29;20703;-86
2023/09/09 01:44:36;;;;;;;10.67;9.77;;;;;;;;;;4927598;29;20591;-88
2023/09/09 01:47:06;;;;;;;11.50;10.40;;;;;;;;;;4926947;29;20683;-87
2023/09/09 01:49:35;;;;;;;10.67;9.80;;;;;;;;;;4911973;29;21073;-88
2023/09/09 01:52:05;;;;;;;11.13;10.00;;;;;;;;;;4943585;28;20699;-87
2023/09/09 01:54:34;;;;;;;11.47;10.37;;;;;;;;;;4929243;29;21116;-86
2023/09/09 01:57:05;;;;;;;12.40;11.07;;;;;;;;;;4927763;29;20970;-86
2023/09/09 01:59:37;;;;;;;11.63;10.40;;;;;;;;;;4927815;29;20691;-86
2023/09/09 02:02:10;;;;;;;12.20;11.10;;;;;;;;;;4940739;29;20755;-87
2023/09/09 02:04:40;;;;;;;11.87;10.87;;;;;;;;;;4909648;29;20742;-86
2023/09/09 02:07:10;;;;;;;12.60;11.33;;;;;;;;;;4930448;29;20723;-87
2023/09/09 02:09:43;;;;;;;11.37;10.47;;;;;;;;;;4931541;29;20759;-86
2023/09/09 02:12:14;;;;;;;16.10;12.83;;;;;;;;;;4931052;28;20698;-86
2023/09/09 02:14:47;;;;;;;13.07;11.77;;;;;;;;;;4931561;28;20591;-86
2023/09/09 02:17:18;;;;;;;14.07;10.57;;;;;;;;;;4915609;29;20663;-86
2023/09/09 02:19:48;;;;;;;12.83;11.53;;;;;;;;;;4931570;28;20647;-86
2023/09/09 02:22:17;;;;;;;11.80;10.70;;;;;;;;;;4915019;29;21189;-86
2023/09/09 02:24:47;;;;;;;12.27;11.27;;;;;;;;;;4914985;28;20606;-87
2023/09/09 02:27:22;;;;;;;12.17;10.90;;;;;;;;;;4930226;28;21006;-88
2023/09/09 02:29:52;;;;;;;12.20;11.07;;;;;;;;;;4913969;29;20638;-87
2023/09/09 02:32:24;;;;;;;12.40;11.20;;;;;;;;;;4914600;29;20726;-86
2023/09/09 02:34:57;;;;;;;11.10;10.20;;;;;;;;;;4930904;29;20695;-86
2023/09/09 02:37:28;;;;;;;9.80;9.00;;;;;;;;;;4931214;29;20669;-86
2023/09/09 02:39:57;;;;;;;12.23;11.03;;;;;;;;;;4914963;29;20624;-87
2023/09/09 02:42:32;;;;;;;11.07;10.17;;;;;;;;;;4932262;29;21197;-87
2023/09/09 02:45:02;;;;;;;12.00;10.90;;;;;;;;;;4932190;29;20684;-86
2023/09/09 02:47:34;;;;;;;12.43;11.17;;;;;;;;;;4948556;29;21091;-86
2023/09/09 02:50:05;;;;;;;11.63;10.53;;;;;;;;;;4916432;29;20632;-86
2023/09/09 02:52:36;;;;;;;11.57;10.37;;;;;;;;;;4946875;29;20694;-86
2023/09/09 02:55:07;;;;;;;11.43;10.40;;;;;;;;;;4943714;28;20733;-86
2023/09/09 02:57:38;;;;;;;13.00;11.70;;;;;;;;;;4947210;28;20728;-86
2023/09/09 03:00:09;;;;;;;11.47;10.57;;;;;;;;;;4946265;29;20632;-87
2023/09/09 03:02:42;;;;;;;13.07;11.73;;;;;;;;;;4929940;29;20750;-87
2023/09/09 03:05:19;;;;;;;11.97;10.80;;;;;;;;;;4931688;29;20690;-86
2023/09/09 03:07:49;;;;;;;12.53;11.40;;;;;;;;;;4924755;29;20797;-85
2023/09/09 03:10:20;;;;;;;13.33;11.50;;;;;;;;;;4947447;29;20766;-86
2023/09/09 03:12:51;;;;;;;11.87;10.70;;;;;;;;;;4903386;29;20727;-86
2023/09/09 03:15:23;;;;;;;11.30;10.23;;;;;;;;;;4929485;29;20629;-87
2023/09/09 03:17:57;;;;;;;11.37;10.20;;;;;;;;;;4937283;28;20566;-87
2023/09/09 03:20:27;;;;;;;12.53;11.23;;;;;;;;;;4928577;29;20611;-84
2023/09/09 03:22:59;;;;;;;11.23;10.13;;;;;;;;;;4928821;29;20640;-86
2023/09/09 03:25:33;;;;;;;12.13;11.00;;;;;;;;;;4897249;29;20775;-85
2023/09/09 03:28:06;;;;;;;13.20;10.67;;;;;;;;;;4943852;28;20624;-86
2023/09/09 03:30:53;;;;;;;11.17;10.20;;;;;;;;;;4896291;29;21216;-86
2023/09/09 03:33:27;;;;;;;11.83;10.50;;;;;;;;;;4926613;29;20649;-86
2023/09/09 03:35:59;;;;;;;13.63;11.57;;;;;;;;;;4925997;29;20565;-86
2023/09/09 03:38:30;;;;;;;12.37;11.27;;;;;;;;;;4926566;29;20629;-86
2023/09/09 03:41:06;;;;;;;17.43;11.70;;;;;;;;;;4925907;29;20633;-86
2023/09/09 03:43:37;;;;;;;11.60;10.57;;;;;;;;;;4926866;29;20696;-88
2023/09/09 03:46:09;;;;;;;11.00;10.10;;;;;;;;;;4925552;29;20747;-86
2023/09/09 03:48:39;;;;;;;12.23;11.20;;;;;;;;;;4910624;29;20719;-87
2023/09/09 03:51:10;;;;;;;12.23;11.03;;;;;;;;;;4925479;29;21218;-86
2023/09/09 03:53:40;;;;;;;10.83;9.83;;;;;;;;;;4925779;29;20704;-86
2023/09/09 03:56:09;;;;;;;11.40;10.40;;;;;;;;;;4908948;29;20617;-86
2023/09/09 03:58:40;;;;;;;11.67;10.63;;;;;;;;;;4925019;29;20616;-86
2023/09/09 04:01:12;;;;;;;13.47;10.17;;;;;;;;;;4892500;29;20636;-86
2023/09/09 04:03:46;;;;;;;12.47;11.20;;;;;;;;;;4906554;29;20772;-87
2023/09/09 04:06:19;;;;;;;11.90;10.90;;;;;;;;;;4905497;29;20969;-86
2023/09/09 04:08:56;;;;;;;13.60;11.20;;;;;;;;;;4899525;29;20673;-85
2023/09/09 04:11:27;;;;;;;11.27;10.23;;;;;;;;;;4907379;29;20664;-85
2023/09/09 04:14:00;;;;;;;10.43;9.60;;;;;;;;;;4887672;29;20631;-86
2023/09/09 04:16:31;;;;;;;10.23;9.30;;;;;;;;;;4903671;29;20614;-85
2023/09/09 04:19:22;;;;;;;11.60;10.50;;;;;;;;;;4905605;29;20602;-88
2023/09/09 04:21:54;;;;;;;11.20;10.07;;;;;;;;;;4919308;29;20578;-86
2023/09/09 04:24:25;;;;;;;13.83;12.40;;;;;;;;;;4888730;29;20719;-85
2023/09/09 04:26:56;;;;;;;10.63;9.63;;;;;;;;;;4903346;29;20796;-86
2023/09/09 04:29:31;;;;;;;11.50;10.30;;;;;;;;;;4918646;29;20642;-86
2023/09/09 04:32:02;;;;;;;11.97;10.77;;;;;;;;;;4903165;29;20567;-85
2023/09/09 04:34:32;;;;;;;13.23;11.83;;;;;;;;;;4904681;29;20618;-86
2023/09/09 04:37:05;;;;;;;10.80;9.77;;;;;;;;;;4906024;29;20614;-86
2023/09/09 04:39:35;;;;;;;11.40;10.20;;;;;;;;;;4903064;29;20677;-86
2023/09/09 04:42:08;;;;;;;11.73;10.53;;;;;;;;;;4902483;29;20590;-84
2023/09/09 04:44:53;;;;;;;11.07;10.07;;;;;;;;;;4920978;29;20617;-86
2023/09/09 04:47:27;;;;;;;12.13;10.90;;;;;;;;;;4890620;29;20796;-90
2023/09/09 04:50:03;;;;;;;11.80;10.20;;;;;;;;;;4920183;29;20631;-87
2023/09/09 04:52:46;;;;;;;11.40;10.40;;;;;;;;;;4923217;29;20629;-86
2023/09/09 04:58:35;;;;;;;10.80;9.90;;;;;;;;;;4941586;29;20624;-86
2023/09/09 05:01:09;;;;;;;10.40;9.40;;;;;;;;;;4922369;29;20609;-86
2023/09/09 05:03:45;;;;;;;9.63;8.73;;;;;;;;;;4938866;29;20743;-86
2023/09/09 05:06:28;;;;;;;11.73;10.63;;;;;;;;;;4937927;28;20742;-86
2023/09/09 05:09:01;;;;;;;10.80;9.80;;;;;;;;;;4910844;29;20671;-85
2023/09/09 05:11:32;;;;;;;17.20;10.33;;;;;;;;;;4927115;29;20601;-86
2023/09/09 05:14:05;;;;;;;10.77;9.87;;;;;;;;;;4921917;29;20676;-86
2023/09/09 05:16:37;;;;;;;10.67;9.67;;;;;;;;;;4952811;28;20668;-88
2023/09/09 05:19:11;;;;;;;10.47;9.53;;;;;;;;;;4930650;29;21115;-86
2023/09/09 05:21:41;;;;;;;11.73;9.80;;;;;;;;;;4928282;29;20632;-86
2023/09/09 05:24:12;;;;;;;11.37;10.20;;;;;;;;;;4936920;28;20744;-87
2023/09/09 05:26:46;;;;;;;11.27;10.20;;;;;;;;;;4956886;28;20719;-85
2023/09/09 05:29:17;;;;;;;10.80;9.90;;;;;;;;;;4919634;29;20644;-86
2023/09/09 05:31:51;;;;;;;17.00;10.70;;;;;;;;;;4909801;29;20640;-85
2023/09/09 05:34:32;;;;;;;10.93;9.93;;;;;;;;;;4924120;28;21286;-86
2023/09/09 05:37:06;;;;;;;12.33;10.40;;;;;;;;;;4933724;29;20687;-86
2023/09/09 05:39:39;;;;;;;10.83;9.73;;;;;;;;;;4908052;29;20689;-86
2023/09/09 05:42:10;;;;;;;11.23;9.90;;;;;;;;;;4937096;29;20669;-86
2023/09/09 05:44:40;;;;;;;10.50;9.70;;;;;;;;;;4928256;29;20624;-85
2023/09/09 05:47:21;;;;;;;11.20;10.10;;;;;;;;;;4939250;29;20648;-85
2023/09/09 05:49:55;;;;;;;10.57;9.57;;;;;;;;;;4942987;29;20651;-85
2023/09/09 05:52:26;;;;;;;12.23;11.03;;;;;;;;;;4928215;29;20651;-88
2023/09/09 05:54:58;;;;;;;10.47;9.57;;;;;;;;;;4920620;28;20650;-87
2023/09/09 05:57:36;;;;;;;12.00;9.60;;;;;;;;;;4944209;28;20708;-87
2023/09/09 06:00:09;;;;;;;10.50;9.60;;;;;;;;;;4921036;29;21262;-86
2023/09/09 06:02:49;;;;;;;11.80;9.87;;;;;;;;;;4923669;29;20703;-86
2023/09/09 06:05:22;;;;;;;11.33;9.47;;;;;;;;;;4927368;29;20731;-85
2023/09/09 06:07:53;;;;;;;12.23;10.97;;;;;;;;;;4923152;29;20616;-86
2023/09/09 06:10:25;;;;;;;11.80;10.60;;;;;;;;;;4935916;28;21248;-85
2023/09/09 06:12:55;;;;;;;12.57;10.13;;;;;;;;;;4934870;29;20756;-87
2023/09/09 06:15:31;;;;;;;11.20;10.10;;;;;;;;;;4928516;29;20711;-87
2023/09/09 06:30:23;;;;;;;10.97;9.87;;;;;;;;;;4952911;28;20664;-83
2023/09/09 06:32:51;;;;;;;10.07;9.03;;;;;;;;;;4939555;29;20719;-83
2023/09/09 06:35:19;;;;;;;11.23;10.00;;;;;;;;;;4929626;29;20631;-83
2023/09/09 06:37:48;;;;;;;10.73;9.83;;;;;;;;;;4946257;29;20628;-82
2023/09/09 06:40:16;;;;;;;11.60;10.40;;;;;;;;;;4946562;29;21009;-82
2023/09/09 06:42:45;;;;;;;15.97;10.07;;;;;;;;;;4947264;29;21271;-82
2023/09/09 06:45:14;;;;;;;15.87;11.20;;;;;;;;;;4925503;28;20700;-84
2023/09/09 06:47:42;;;;;;;11.63;10.50;;;;;;;;;;4945970;29;20704;-82
2023/09/09 06:50:10;;;;;;;12.23;10.60;;;;;;;;;;4947486;28;20679;-82
2023/09/09 06:52:39;;;;;;;11.33;10.10;;;;;;;;;;4949330;28;20711;-82
2023/09/09 06:55:13;;;;;;;12.97;11.20;;;;;;;;;;4929940;29;20620;-84
2023/09/09 06:58:09;;;;;;;10.53;9.43;;;;;;;;;;4931213;29;20617;-87
2023/09/09 07:01:02;;;;;;;12.30;10.97;;;;;;;;;;4943450;29;20623;-85
2023/09/09 07:06:33;;;;;;;11.20;10.20;;;;;;;;;;4953416;23;20690;-86
2023/09/09 07:09:13;;;;;;;11.17;10.03;;;;;;;;;;4943283;28;20684;-86
2023/09/09 07:12:03;;;;;;;11.37;10.30;;;;;;;;;;4948365;29;20714;-86
2023/09/09 07:14:37;;;;;;;17.13;11.80;;;;;;;;;;4947218;28;20612;-86
2023/09/09 07:17:10;;;;;;;20.53;12.43;;;;;;;;;;4933171;29;20735;-84
2023/09/09 07:19:39;;;;;;;16.73;14.93;;;;;;;;;;4967619;28;21271;-85
2023/09/09 07:22:08;;;;;;;15.73;12.57;;;;;;;;;;4966803;28;21157;-85
2023/09/09 07:24:38;;;;;;;15.80;13.80;;;;;;;;;;4969219;28;20622;-83
2023/09/09 07:27:07;;;;;;;15.93;13.73;;;;;;;;;;4967979;28;20690;-83
2023/09/09 07:29:35;;;;;;;14.80;13.10;;;;;;;;;;4950941;28;20741;-83
2023/09/09 07:32:07;;;;;;;14.47;13.17;;;;;;;;;;4953659;29;20658;-82
2023/09/09 07:34:36;;;;;;;14.53;12.37;;;;;;;;;;4953518;29;20779;-85
2023/09/09 07:37:05;;;;;;;12.63;11.47;;;;;;;;;;4950152;29;20612;-85
2023/09/09 07:39:44;;;;;;;13.33;11.60;;;;;;;;;;4948476;28;20723;-84
2023/09/09 07:42:18;;;;;;;14.30;11.70;;;;;;;;;;4951966;28;20751;-86
2023/09/09 07:44:53;;;;;;;15.93;14.33;;;;;;;;;;4950965;28;20698;-85
2023/09/09 07:47:27;;;;;;;16.40;14.70;;;;;;;;;;4952964;29;20691;-86
2023/09/09 07:49:56;;;;;;;17.70;16.00;;;;;;;;;;4941527;29;20767;-86
2023/09/09 07:52:27;;;;;;;17.53;15.17;;;;;;;;;;4946358;29;20699;-84
2023/09/09 07:54:55;;;;;;;17.83;15.57;;;;;;;;;;4951434;28;20795;-86
2023/09/09 07:57:24;;;;;;;16.10;14.50;;;;;;;;;;4966809;29;20714;-83
2023/09/09 07:59:52;;;;;;;19.13;17.10;;;;;;;;;;4964561;28;20777;-85
2023/09/09 08:02:23;;;;;;;18.63;16.83;;;;;;;;;;4948996;29;20695;-85
2023/09/09 08:04:54;;;;;;;18.77;16.60;;;;;;;;;;4949459;28;20663;-84
2023/09/09 08:07:24;;;;;;;19.70;16.37;;;;;;;;;;4946410;28;20735;-85
2023/09/09 08:09:57;;;;;;;21.53;15.80;;;;;;;;;;4937910;28;20720;-86
2023/09/09 08:12:33;;;;;;;17.80;16.10;;;;;;;;;;4933182;29;20704;-84
2023/09/09 08:15:15;;;;;;;;;;;;;;;;;;;;;
2023/09/09 08:17:48;;;;;;;21.57;17.40;;;;;;;;;;4973438;28;20632;-85
2023/09/09 08:20:17;;;;;;;19.60;17.50;;;;;;;;;;4958472;28;20620;-86
2023/09/09 08:22:45;;;;;;;19.50;17.50;;;;;;;;;;4954365;29;20650;-84
2023/09/09 08:25:16;;;;;;;19.60;17.63;;;;;;;;;;4958390;29;20679;-83
2023/09/09 08:27:47;;;;;;;22.67;20.23;;;;;;;;;;4972337;29;20592;-88
2023/09/09 08:30:19;;;;;;;22.43;20.13;;;;;;;;;;4956812;28;20667;-87
2023/09/09 08:32:52;;;;;;;24.03;21.73;;;;;;;;;;4920379;29;20726;-84
2023/09/09 08:35:21;;;;;;;23.97;20.80;;;;;;;;;;4955202;29;20634;-85
2023/09/09 08:37:56;;;;;;;21.70;19.70;;;;;;;;;;4957598;28;20603;-83
2023/09/09 08:40:24;;;;;;;22.30;17.93;;;;;;;;;;4986387;23;20699;-85
2023/09/09 08:42:59;;;;;;;20.80;18.80;;;;;;;;;;4917370;28;20694;-83
2023/09/09 08:45:44;;;;;;;24.50;20.27;;;;;;;;;;4934640;29;20644;-83
2023/09/09 08:48:17;;;;;;;21.90;19.63;;;;;;;;;;4923884;29;20731;-84
2023/09/09 08:50:51;;;;;;;19.77;17.70;;;;;;;;;;4933084;29;20728;-85
2023/09/09 08:53:23;;;;;;;24.60;18.27;;;;;;;;;;4925468;29;20683;-84
2023/09/09 08:55:51;;;;;;;22.83;20.47;;;;;;;;;;4908709;29;21222;-85
2023/09/09 08:58:22;;;;;;;23.53;19.07;;;;;;;;;;4909485;29;20709;-83
2023/09/09 09:00:54;;;;;;;24.17;19.30;;;;;;;;;;4911470;29;20578;-85
2023/09/09 09:03:28;;;;;;;21.23;19.23;;;;;;;;;;4906795;29;20718;-85
2023/09/09 09:05:58;;;;;;;21.00;18.93;;;;;;;;;;4874352;29;20707;-84
2023/09/09 09:08:28;;;;;;;22.60;18.40;;;;;;;;;;4915004;29;20655;-85
2023/09/09 09:10:57;;;;;;;22.47;20.10;;;;;;;;;;4911970;29;20758;-84
2023/09/09 09:13:26;;;;;;;21.83;18.90;;;;;;;;;;4880777;29;20706;-86
2023/09/09 09:15:55;;;;;;;19.07;17.40;;;;;;;;;;4905973;29;20750;-87
2023/09/09 09:18:24;;;;;;;18.00;16.50;;;;;;;;;;4874569;29;20722;-84
2023/09/09 09:21:09;;;;;;;19.57;17.47;;;;;;;;;;4891709;29;20665;-85
2023/09/09 09:23:43;;;;;;;18.70;16.83;;;;;;;;;;4895207;29;20563;-86
2023/09/09 09:26:28;;;;;;;20.93;17.73;;;;;;;;;;4892202;29;20670;-85
2023/09/09 09:28:57;;;;;;;16.97;15.57;;;;;;;;;;4911282;29;20770;-83
2023/09/09 09:31:37;;;;;;;19.53;16.70;;;;;;;;;;4896656;29;20705;-86
2023/09/09 09:34:18;;;;;;;17.30;15.70;;;;;;;;;;4882657;29;20617;-85
2023/09/09 09:36:54;;;;;;;21.13;16.47;;;;;;;;;;4898310;29;20638;-85
2023/09/09 09:39:52;;;;;;;15.53;13.90;;;;;;;;;;4898964;29;20653;-85
2023/09/09 09:42:21;;;;;;;16.57;14.87;;;;;;;;;;4900266;29;20590;-86
2023/09/09 09:45:08;;;;;;;18.70;16.77;;;;;;;;;;4898383;29;20617;-87
2023/09/09 09:47:43;;;;;;;21.70;15.50;;;;;;;;;;4894809;29;21344;-87
2023/09/09 09:50:18;;;;;;;16.43;14.73;;;;;;;;;;4893632;29;20750;-87
2023/09/09 09:52:57;;;;;;;18.87;14.33;;;;;;;;;;4892262;29;20633;-87
2023/09/09 09:55:28;;;;;;;15.20;13.80;;;;;;;;;;4895413;29;20638;-87
2023/09/09 09:58:00;;;;;;;15.23;13.97;;;;;;;;;;4889689;29;21221;-86
2023/09/09 10:00:29;;;;;;;20.23;15.13;;;;;;;;;;4889801;29;20906;-87
2023/09/09 10:03:03;;;;;;;15.37;13.17;;;;;;;;;;4893395;29;21398;-86
2023/09/09 10:05:47;;;;;;;14.17;13.07;;;;;;;;;;4889266;29;20661;-85
2023/09/09 10:08:31;;;;;;;14.47;13.07;;;;;;;;;;4873483;29;20641;-87
2023/09/09 10:11:04;;;;;;;15.33;13.93;;;;;;;;;;4892795;29;20649;-87
2023/09/09 10:13:37;;;;;;;14.13;13.00;;;;;;;;;;4887455;29;20662;-88
2023/09/09 10:16:07;;;;;;;15.37;13.87;;;;;;;;;;4911007;29;20625;-83
2023/09/09 10:18:37;;;;;;;19.87;12.20;;;;;;;;;;4898903;29;20998;-88
2023/09/09 10:21:07;;;;;;;13.67;12.10;;;;;;;;;;4934305;29;20625;-86
2023/09/09 10:23:38;;;;;;;14.77;13.20;;;;;;;;;;4917715;29;20668;-86
2023/09/09 10:26:12;;;;;;;13.23;11.87;;;;;;;;;;4936470;29;20641;-85
2023/09/09 10:28:52;;;;;;;15.83;13.67;;;;;;;;;;4914509;29;20600;-88
2023/09/09 10:31:24;;;;;;;13.80;12.80;;;;;;;;;;4920772;29;20722;-86
2023/09/09 10:33:53;;;;;;;13.90;12.63;;;;;;;;;;5012962;23;20677;-85
2023/09/09 10:36:26;;;;;;;14.00;12.97;;;;;;;;;;4936194;29;20678;-84
2023/09/09 10:39:02;;;;;;;13.60;12.40;;;;;;;;;;4940863;29;20632;-86
2023/09/09 10:41:32;;;;;;;13.50;12.40;;;;;;;;;;4934918;29;20703;-85
2023/09/09 10:44:04;;;;;;;12.57;11.67;;;;;;;;;;4939030;29;20642;-86
2023/09/09 10:46:39;;;;;;;13.63;12.10;;;;;;;;;;4952486;28;20679;-89
2023/09/09 10:49:16;;;;;;;16.20;11.10;;;;;;;;;;4936615;29;20612;-85
2023/09/09 10:51:52;;;;;;;12.17;11.17;;;;;;;;;;4936729;29;20688;-86
2023/09/09 10:54:23;;;;;;;11.73;10.80;;;;;;;;;;4935977;29;20680;-86
2023/09/09 10:56:52;;;;;;;11.97;10.83;;;;;;;;;;4949084;29;20727;-85
2023/09/09 10:59:27;;;;;;;12.70;11.70;;;;;;;;;;4948972;28;20639;-85
2023/09/09 11:02:10;;;;;;;13.03;11.70;;;;;;;;;;4927986;29;20644;-88
2023/09/09 11:04:44;;;;;;;18.60;11.87;;;;;;;;;;4930310;29;20664;-88
2023/09/09 11:07:18;;;;;;;11.50;10.67;;;;;;;;;;4951025;28;20639;-88
2023/09/09 11:10:18;;;;;;;13.07;12.27;;;;;;;;;;4945170;29;20625;-87
2023/09/09 11:12:52;;;;;;;13.33;12.23;;;;;;;;;;4928315;29;20949;-85
2023/09/09 11:15:51;;;;;;;15.90;14.53;;;;;;;;;;4934114;28;20618;-86
2023/09/09 11:18:33;;;;;;;14.40;13.10;;;;;;;;;;4940729;28;21038;-87
2023/09/09 11:21:03;;;;;;;12.43;11.67;;;;;;;;;;4929147;29;20740;-83
2023/09/09 11:23:33;;;;;;;13.23;12.43;;;;;;;;;;4925721;29;21159;-86
2023/09/09 11:26:11;;;;;;;14.37;13.17;;;;;;;;;;4912991;29;20614;-86
2023/09/09 11:28:40;;;;;;;13.80;12.80;;;;;;;;;;4924228;29;20703;-85
2023/09/09 11:31:12;;;;;;;14.17;13.17;;;;;;;;;;4927420;29;20702;-86
2023/09/09 11:33:52;;;;;;;15.90;13.20;;;;;;;;;;4904862;28;20588;-90
2023/09/09 11:43:01;;;;;;;13.30;12.30;;;;;;;;;;5158345;23;20672;-90
2023/09/09 11:46:03;;;;;;;13.00;12.10;;;;;;;;;;5171658;23;20687;-89
2023/09/09 11:48:57;;;;;;;13.50;12.40;;;;;;;;;;4941942;29;20676;-86
2023/09/09 11:51:27;;;;;;;13.53;12.60;;;;;;;;;;4968545;28;20675;-89
2023/09/09 11:53:57;;;;;;;12.70;11.60;;;;;;;;;;4946832;28;20619;-89
2023/09/09 11:56:26;;;;;;;13.77;12.70;;;;;;;;;;4962440;28;20616;-88
2023/09/09 11:58:57;;;;;;;13.47;12.27;;;;;;;;;;4962683;29;20639;-89
2023/09/09 12:01:29;;;;;;;13.50;12.60;;;;;;;;;;4962244;29;20604;-89
2023/09/09 12:04:07;;;;;;;13.67;12.57;;;;;;;;;;4968721;28;20665;-89
2023/09/09 12:06:36;;;;;;;13.07;12.23;;;;;;;;;;4942873;29;20613;-89
2023/09/09 12:09:05;;;;;;;14.20;13.07;;;;;;;;;;4960056;28;20622;-88
2023/09/09 12:11:36;;;;;;;13.27;12.27;;;;;;;;;;4943798;29;20683;-89
2023/09/09 12:14:07;;;;;;;11.93;11.33;;;;;;;;;;4960104;28;20662;-85
2023/09/09 12:16:36;;;;;;;13.10;12.10;;;;;;;;;;4942811;29;20597;-89
2023/09/09 12:22:08;;;;;;;13.10;11.90;;;;;;;;;;5166912;23;20672;-88
2023/09/09 12:24:50;;;;;;;13.33;12.13;;;;;;;;;;4935905;29;20647;-88
2023/09/09 12:33:20;;;;;;;12.13;11.53;;;;;;;;;;4939025;29;20667;-88
2023/09/09 12:35:51;;;;;;;13.30;12.40;;;;;;;;;;4907495;29;20631;-88
2023/09/09 12:41:19;;;;;;;12.90;11.77;;;;;;;;;;5557124;23;20647;-87
2023/09/09 12:43:51;;;;;;;12.30;11.23;;;;;;;;;;4962411;28;20621;-88
2023/09/09 12:46:27;;;;;;;13.77;12.20;;;;;;;;;;4946712;28;20607;-88
2023/09/09 12:51:51;;;;;;;12.30;11.60;;;;;;;;;;4959300;28;20706;-89
2023/09/09 12:54:24;;;;;;;13.30;12.30;;;;;;;;;;4925849;29;20646;-87
2023/09/09 12:56:53;;;;;;;12.77;11.97;;;;;;;;;;4933682;29;20700;-86
2023/09/09 12:59:22;;;;;;;13.20;12.40;;;;;;;;;;4933967;29;20628;-85
2023/09/09 13:01:51;;;;;;;12.57;11.87;;;;;;;;;;4931755;29;20690;-87
2023/09/09 13:07:12;;;;;;;11.63;10.97;;;;;;;;;;4912588;29;20691;-88
2023/09/09 13:16:01;;;;;;;12.37;11.67;;;;;;;;;;4893155;29;20661;-88
2023/09/09 13:18:34;;;;;;;12.60;11.77;;;;;;;;;;4901265;29;20622;-88
2023/09/09 13:21:04;;;;;;;12.10;11.30;;;;;;;;;;4881203;29;20673;-88
2023/09/09 13:23:36;;;;;;;13.90;12.50;;;;;;;;;;4915637;29;20682;-89
2023/09/09 13:26:09;;;;;;;12.67;11.67;;;;;;;;;;4918290;29;20680;-88
2023/09/09 13:28:41;;;;;;;13.33;12.43;;;;;;;;;;5126102;23;20665;-88
2023/09/09 13:31:11;;;;;;;13.57;12.47;;;;;;;;;;4937267;29;20633;-85
2023/09/09 14:37:48;;;;;;;12.80;11.87;;;;;;;;;;5208026;23;20674;-87
2023/09/09 14:40:16;;;;;;;12.67;10.90;;;;;;;;;;4974924;28;20616;-87
2023/09/09 14:42:50;;;;;;;12.30;11.50;;;;;;;;;;4980586;28;20594;-87
2023/09/09 14:45:18;;;;;;;12.70;11.60;;;;;;;;;;4954306;28;20572;-88
2023/09/09 14:47:49;;;;;;;11.67;10.80;;;;;;;;;;4957569;29;20640;-86
2023/09/09 14:50:17;;;;;;;12.03;11.03;;;;;;;;;;4954857;28;20607;-85
2023/09/09 14:52:48;;;;;;;11.87;11.17;;;;;;;;;;4949802;29;20723;-86
2023/09/09 14:55:16;;;;;;;12.97;11.80;;;;;;;;;;4956942;28;20643;-87
2023/09/09 14:57:46;;;;;;;14.13;13.30;;;;;;;;;;4977592;28;20649;-86
2023/09/09 15:00:15;;;;;;;13.27;12.10;;;;;;;;;;4924552;29;20688;-84
2023/09/09 15:02:43;;;;;;;13.13;12.23;;;;;;;;;;4935466;29;20640;-83
2023/09/09 15:05:14;;;;;;;12.53;11.60;;;;;;;;;;4938338;29;20632;-84
2023/09/09 15:07:42;;;;;;;13.07;11.97;;;;;;;;;;4938585;29;21059;-83
2023/09/09 15:10:11;;;;;;;12.57;11.57;;;;;;;;;;4939007;29;20625;-86
2023/09/09 15:12:39;;;;;;;12.23;11.47;;;;;;;;;;4907961;29;20678;-87
2023/09/09 15:15:10;;;;;;;12.93;11.70;;;;;;;;;;4924947;29;20633;-86
2023/09/09 15:17:58;;;;;;;13.07;11.87;;;;;;;;;;5220847;23;20668;-89
2023/09/09 15:20:29;;;;;;;12.80;11.73;;;;;;;;;;4913356;29;20709;-88
2023/09/09 15:22:57;;;;;;;12.47;11.70;;;;;;;;;;5773200;23;20616;-85
2023/09/09 15:25:32;;;;;;;13.17;12.27;;;;;;;;;;4992746;28;20642;-87
2023/09/09 15:28:00;;;;;;;13.13;12.10;;;;;;;;;;4976740;28;20686;-86
2023/09/09 15:30:32;;;;;;;13.60;12.57;;;;;;;;;;4971351;28;20630;-87
2023/09/09 15:33:05;;;;;;;17.30;11.77;;;;;;;;;;4994422;28;20651;-84
2023/09/09 15:35:34;;;;;;;13.37;12.27;;;;;;;;;;4992502;28;20615;-84
2023/09/09 15:38:03;;;;;;;12.93;12.03;;;;;;;;;;4981530;28;20614;-85
2023/09/09 15:40:31;;;;;;;13.00;11.80;;;;;;;;;;5003567;23;20728;-85
2023/09/09 15:43:00;;;;;;;14.50;13.30;;;;;;;;;;4951681;29;20640;-86
2023/09/09 15:45:30;;;;;;;13.10;12.20;;;;;;;;;;4925296;29;20646;-85
2023/09/09 15:48:00;;;;;;;14.37;11.20;;;;;;;;;;4883907;29;20629;-86
2023/09/09 15:50:28;;;;;;;13.30;12.17;;;;;;;;;;4918743;29;20633;-87
2023/09/09 15:52:57;;;;;;;12.97;11.83;;;;;;;;;;4940589;29;20648;-86
2023/09/09 15:55:25;;;;;;;12.37;11.33;;;;;;;;;;4943346;29;20646;-85
2023/09/09 15:57:54;;;;;;;12.00;11.10;;;;;;;;;;4934128;29;20712;-85
2023/09/09 16:00:23;;;;;;;12.63;11.73;;;;;;;;;;4912466;29;20660;-88
2023/09/09 16:02:51;;;;;;;13.63;11.90;;;;;;;;;;4936757;29;20657;-88
2023/09/09 16:05:28;;;;;;;13.43;12.10;;;;;;;;;;5054608;23;20699;-88
2023/09/09 16:18:13;;;;;;;12.53;11.73;;;;;;;;;;4923803;29;20655;-90
2023/09/09 16:39:08;;;;;;;15.20;13.47;;;;;;;;;;4631846;23;20691;-88
2023/09/09 16:41:39;;;;;;;19.23;14.00;;;;;;;;;;4939126;28;20646;-88
2023/09/09 16:44:12;;;;;;;18.30;13.70;;;;;;;;;;4940987;28;20674;-87
2023/09/09 16:46:51;;;;;;;36.67;14.37;;;;;;;;;;4967093;28;20612;-89
2023/09/09 16:49:20;;;;;;;17.37;12.80;;;;;;;;;;4962816;28;20661;-88
2023/09/09 16:51:52;;;;;;;15.13;13.70;;;;;;;;;;4997333;28;20556;-89
2023/09/09 16:54:23;;;;;;;14.77;13.30;;;;;;;;;;4963748;28;20647;-88
2023/09/09 16:57:29;;;;;;;15.97;12.33;;;;;;;;;;4960691;29;20629;-89
2023/09/09 17:00:10;;;;;;;14.43;12.90;;;;;;;;;;4977812;28;20612;-89
2023/09/09 17:02:50;;;;;;;19.20;11.97;;;;;;;;;;5126992;23;20619;31
2023/09/09 17:05:19;;;;;;;23.97;11.40;;;;;;;;;;4885325;29;20654;-88
2023/09/09 17:07:48;;;;;;;18.67;11.33;;;;;;;;;;4880895;29;20643;-85
2023/09/09 17:14:24;;;;;;;27.77;11.50;;;;;;;;;;4902250;29;20679;-89
2023/09/09 17:40:42;;;;;;;;;;;;;;;;;;;;;
2023/09/09 17:47:30;;;;;;;11.30;10.40;;;;;;;;;;4949474;28;20663;-89
2023/09/09 17:50:37;;;;;;;11.87;9.57;;;;;;;;;;4943710;28;20682;-90
2023/09/09 17:53:56;;;;;;;11.97;10.43;;;;;;;;;;4965638;28;20679;-90
2023/09/09 18:07:42;;;;;;;10.90;10.00;;;;;;;;;;4944079;29;20651;-89
2023/09/09 18:14:48;;;;;;;14.10;12.90;;;;;;;;;;4956977;28;20651;-89
2023/09/09 18:18:07;;;;;;;13.83;10.77;;;;;;;;;;4927964;29;20628;-89
2023/09/09 18:24:12;;;;;;;12.00;10.80;;;;;;;;;;4951840;29;20651;-90
2023/09/09 18:27:15;;;;;;;17.30;10.60;;;;;;;;;;4924592;29;20850;-89
2023/09/09 18:30:27;;;;;;;11.07;10.07;;;;;;;;;;4941231;29;20726;-88
2023/09/09 18:33:14;;;;;;;12.20;10.40;;;;;;;;;;4924597;29;21178;-87
2023/09/09 18:36:08;;;;;;;11.43;10.43;;;;;;;;;;4922769;29;20641;-89
2023/09/09 18:42:02;;;;;;;10.13;9.17;;;;;;;;;;4946402;29;20644;-88
2023/09/09 18:44:32;;;;;;;10.30;9.27;;;;;;;;;;4923774;29;20702;-88
2023/09/09 18:47:13;;;;;;;9.67;8.57;;;;;;;;;;4895739;29;20615;-89
2023/09/09 18:50:07;;;;;;;13.80;8.87;;;;;;;;;;4929441;29;20633;-91
2023/09/09 19:06:47;;;;;;;10.70;8.70;;;;;;;;;;5311465;23;20679;-89
2023/09/09 19:09:48;;;;;;;10.60;9.53;;;;;;;;;;4932604;29;20711;-90
2023/09/09 19:12:53;;;;;;;11.57;7.83;;;;;;;;;;4928232;29;20645;-88
2023/09/09 19:15:44;;;;;;;15.97;8.60;;;;;;;;;;4953088;28;20623;-90
2023/09/09 19:22:40;;;;;;;9.20;7.70;;;;;;;;;;4940393;29;20656;-88
2023/09/09 19:28:04;;;;;;;9.20;8.30;;;;;;;;;;4942092;29;20600;-89
2023/09/09 19:30:57;;;;;;;11.50;8.30;;;;;;;;;;5302860;23;20777;-87
2023/09/09 19:33:26;;;;;;;9.80;8.90;;;;;;;;;;4941563;29;20235;-90
2023/09/09 19:36:02;;;;;;;9.10;8.10;;;;;;;;;;4908021;29;20636;-90
2023/09/09 19:47:46;;;;;;;13.70;8.80;;;;;;;;;;5362675;23;20249;-91